Welcome to the New NWS' Forecast!
Most changes are behind the scenes, but click here for differences you might notice.

Terminal Aerodrome Forecast (TAF)

Issued by National Weather Service (NWS)

                            
000
FTUS42 KMFL 180527
TAFMIA
TAF
KMIA 180527Z 1806/1912 09009KT P6SM VCSH SCT025 SCT050
      TEMPO 1806/1809 VRB15KT 5SM TSRA BKN025CB
     FM181300 09010KT P6SM VCSH SCT025 SCT040 PROB30 1815/1818
      VRB15KT 4SM TSRA BKN025CB
     FM181800 11011KT P6SM FEW030 PROB30 1818/1821 VRB15KT 4SM TSRA
      BKN025CB
     FM190000 10006KT P6SM VCSH SCT025 SCT250=